Time;durP1;ratioP1;P1;durP2;ratioP2;P2;SDS_P1;SDS_P2;PMS_P1;PMS_P2;Temp;Humidity;BMP_temperature;BMP_pressure;BME280_temperature;BME280_humidity;BME280_pressure;Samples;Min_cycle;Max_cycle;Signal;HPM_P1;HPM_P2
2024/03/26 00:00:40;;;;;;;2.13;1.40;;;9.90;47.90;;;5.14;72.06;93604.25;4965671;28;20058;-55
2024/03/26 00:03:06;;;;;;;1.70;1.30;;;9.90;48.00;;;5.04;73.71;93597.22;4967165;28;20111;-54
2024/03/26 00:05:32;;;;;;;4.93;1.35;;;9.80;48.00;;;5.00;73.62;93596.97;4969113;28;20014;-52
2024/03/26 00:07:58;;;;;;;2.33;1.35;;;9.70;48.00;;;4.88;73.65;93592.06;4965723;28;20044;-49
2024/03/26 00:10:24;;;;;;;4.57;1.40;;;9.70;48.10;;;4.84;73.66;93596.31;4966052;28;20026;-53
2024/03/26 00:12:51;;;;;;;3.00;1.17;;;9.60;48.10;;;4.79;73.67;93598.22;4966018;28;20041;-56
2024/03/26 00:15:17;;;;;;;4.15;1.70;;;9.60;48.20;;;4.72;74.62;93584.56;4966493;28;20022;-54
2024/03/26 00:17:43;;;;;;;4.63;1.60;;;9.50;48.20;;;4.68;74.71;93589.59;4967064;28;20504;-57
2024/03/26 00:20:10;;;;;;;2.55;1.50;;;9.50;48.40;;;4.51;79.14;93589.19;4967129;28;20046;-54
2024/03/26 00:22:36;;;;;;;3.90;1.70;;;9.40;48.60;;;4.35;80.10;93591.16;4968820;28;20034;-55
2024/03/26 00:25:02;;;;;;;2.72;1.70;;;9.30;48.70;;;4.11;81.68;93586.56;4962264;28;20363;-55
2024/03/26 00:27:27;;;;;;;3.88;1.45;;;9.30;49.00;;;4.07;79.95;93587.34;4964596;28;20030;-56
2024/03/26 00:29:53;;;;;;;2.30;1.48;;;9.20;49.00;;;4.07;80.33;93587.34;4968912;28;20546;-52
2024/03/26 00:32:19;;;;;;;2.58;1.52;;;9.10;49.00;;;4.08;77.07;93581.06;4967115;28;20493;-51
2024/03/26 00:34:46;;;;;;;3.30;1.52;;;9.10;49.20;;;4.17;76.36;93587.31;4969295;28;20050;-52
2024/03/26 00:37:12;;;;;;;1.75;1.35;;;9.00;49.20;;;4.25;77.13;93578.03;4962874;28;20504;-53
2024/03/26 00:39:38;;;;;;;2.60;1.30;;;8.90;49.20;;;4.23;76.39;93577.50;4962838;28;20026;-55
2024/03/26 00:42:04;;;;;;;4.25;1.40;;;9.00;49.40;;;4.21;76.71;93569.91;4966890;28;20022;-54
2024/03/26 00:44:30;;;;;;;4.03;1.40;;;8.90;49.40;;;4.19;75.42;93569.38;4966254;28;20521;-54
2024/03/26 00:46:56;;;;;;;3.90;1.20;;;8.90;49.50;;;4.21;75.39;93567.25;4964392;28;20033;-53
2024/03/26 00:49:21;;;;;;;4.25;1.40;;;8.90;49.50;;;4.21;76.17;93567.25;4964545;28;20085;-55
2024/03/26 00:51:47;;;;;;;4.13;1.65;;;9.00;49.70;;;4.21;75.92;93559.34;4982618;28;20018;-55
2024/03/26 00:54:13;;;;;;;3.20;1.27;;;8.90;49.60;;;4.20;75.47;93559.63;4968451;28;20469;-52
2024/03/26 00:56:41;;;;;;;1.85;1.42;;;8.90;49.60;;;4.16;76.58;93559.38;4965935;28;20018;-54
2024/03/26 00:59:07;;;;;;;3.65;1.90;;;8.90;49.60;;;4.18;77.18;93558.06;4968795;28;20023;-52
2024/03/26 01:01:33;;;;;;;3.60;1.60;;;8.90;49.60;;;4.15;76.91;93555.97;4960621;28;20050;-57
2024/03/26 01:03:59;;;;;;;4.22;1.65;;;8.90;49.70;;;4.04;80.06;93548.38;4965179;28;20084;-51
2024/03/26 01:06:25;;;;;;;2.13;1.52;;;8.80;49.70;;;3.94;79.49;93544.75;4963587;28;20044;-56
2024/03/26 01:08:51;;;;;;;4.50;1.70;;;8.70;49.70;;;3.83;80.49;93547.72;4961807;28;20498;-50
2024/03/26 01:11:17;;;;;;;2.88;1.80;;;8.70;49.70;;;3.68;83.62;93544.09;4966747;28;20071;-54
2024/03/26 01:13:43;;;;;;;2.58;1.80;;;8.60;49.80;;;3.52;84.81;93537.34;4967620;28;20037;-51
2024/03/26 01:16:09;;;;;;;5.95;2.20;;;8.50;49.90;;;3.47;84.61;93538.13;4964890;28;20117;-56
2024/03/26 01:18:36;;;;;;;6.22;2.50;;;8.40;50.00;;;3.43;83.36;93539.72;4964707;28;20553;-51
2024/03/26 01:21:03;;;;;;;3.33;2.45;;;8.30;50.10;;;3.36;83.62;93528.72;4963585;28;20030;-55
2024/03/26 01:23:29;;;;;;;4.85;2.45;;;8.30;50.20;;;3.25;85.53;93538.47;4969000;28;20135;-52
2024/03/26 01:25:54;;;;;;;4.18;2.53;;;8.20;50.40;;;3.16;85.58;93537.44;4970459;28;20097;-57
2024/03/26 01:28:21;;;;;;;5.75;2.95;;;8.10;50.50;;;3.06;86.93;93529.59;4965948;28;20026;-57
2024/03/26 01:30:46;;;;;;;5.32;2.28;;;8.00;50.60;;;2.97;87.06;93536.44;4970461;28;20029;-57
2024/03/26 01:33:12;;;;;;;5.20;2.92;;;7.90;51.30;;;2.90;88.21;93534.09;4967261;28;20022;-52
2024/03/26 01:35:38;;;;;;;3.65;2.67;;;7.90;50.90;;;2.81;90.24;93542.78;4967128;28;20391;-54
2024/03/26 01:38:04;;;;;;;5.38;3.00;;;7.80;51.10;;;2.67;93.22;93530.19;4965817;28;20022;-52
2024/03/26 01:40:30;;;;;;;5.63;2.95;;;7.70;51.20;;;2.62;94.58;93532.03;4964534;28;20014;-53
2024/03/26 01:42:58;;;;;;;7.32;2.70;;;7.60;51.40;;;2.59;93.77;93528.09;4970474;28;20026;-57
2024/03/26 01:45:27;;;;;;;6.88;2.83;;;7.60;51.60;;;2.57;94.41;93524.97;4969158;28;20421;-54
2024/03/26 01:47:53;;;;;;;5.05;2.50;;;7.50;51.70;;;2.53;95.62;93527.31;4966228;28;20060;-54
2024/03/26 01:50:20;;;;;;;3.65;2.38;;;7.50;52.00;;;2.48;95.19;93523.91;4962435;28;20062;-53
2024/03/26 01:52:47;;;;;;;4.05;2.45;;;7.40;52.10;;;2.48;94.13;93516.03;4969971;28;20026;-58
2024/03/26 01:55:16;;;;;;;4.55;2.45;;;7.40;52.30;;;2.52;94.23;93511.81;4966878;28;20022;-54
2024/03/26 01:57:42;;;;;;;5.80;2.20;;;7.40;52.40;;;2.54;94.14;93507.09;4961694;28;20049;-53
2024/03/26 02:00:09;;;;;;;3.97;2.28;;;7.40;52.60;;;2.59;93.10;93496.56;4966170;28;20145;-53
2024/03/26 02:02:35;;;;;;;2.97;1.90;;;7.40;52.60;;;2.61;92.54;93491.81;4976142;28;20073;-53
2024/03/26 02:05:01;;;;;;;4.28;2.13;;;7.40;52.70;;;2.62;92.62;93488.13;4962520;28;21148;-54
2024/03/26 02:07:26;;;;;;;4.00;1.80;;;7.40;52.80;;;2.57;94.10;93485.53;4966560;28;20492;-54
2024/03/26 02:09:53;;;;;;;3.58;1.70;;;7.40;52.80;;;2.59;92.88;93477.38;4966900;28;20512;-55
2024/03/26 02:12:19;;;;;;;2.90;1.58;;;7.40;52.80;;;2.58;92.63;93473.97;4963681;28;20109;-53
2024/03/26 02:14:44;;;;;;;4.20;1.70;;;7.40;52.80;;;2.63;90.20;93470.50;4961297;28;20109;-52
2024/03/26 02:17:11;;;;;;;2.42;1.30;;;7.40;52.80;;;2.68;88.41;93466.03;4964385;28;20019;-54
2024/03/26 02:19:37;;;;;;;5.22;1.60;;;7.40;52.80;;;2.77;86.23;93466.28;4965173;28;20088;-51
2024/03/26 02:22:03;;;;;;;2.75;1.13;;;7.50;52.90;;;2.92;84.42;93473.34;4962896;28;20500;-53
2024/03/26 02:24:32;;;;;;;3.25;1.13;;;7.60;52.90;;;3.05;83.34;93464.88;4967653;28;20054;-53
2024/03/26 02:27:01;;;;;;;2.80;1.30;;;7.70;52.90;;;3.18;81.46;93471.41;4963697;28;20038;-52
2024/03/26 02:29:27;;;;;;;4.72;1.20;;;7.70;52.70;;;3.27;80.28;93467.16;4965821;28;20034;-53
2024/03/26 02:31:53;;;;;;;2.85;1.10;;;7.80;52.60;;;3.35;81.43;93460.53;4964705;28;20381;-58
2024/03/26 02:34:20;;;;;;;1.70;1.13;;;7.90;52.50;;;3.33;80.11;93463.47;4966044;28;20488;-54
2024/03/26 02:36:46;;;;;;;2.40;1.17;;;8.00;52.40;;;3.37;82.39;93466.34;4959031;28;20030;-53
2024/03/26 02:39:13;;;;;;;2.28;1.50;;;8.00;52.20;;;3.39;81.29;93458.97;4962918;28;20035;-55
2024/03/26 02:41:39;;;;;;;1.52;1.02;;;8.10;52.20;;;3.42;81.39;93466.31;4964112;28;20026;-52
2024/03/26 02:44:05;;;;;;;4.30;1.23;;;8.10;52.20;;;3.40;82.70;93460.53;4967816;28;20107;-51
2024/03/26 02:46:31;;;;;;;3.58;1.63;;;8.10;52.10;;;3.40;81.22;93450.78;4967271;28;20073;-54
2024/03/26 02:48:59;;;;;;;4.38;1.60;;;8.10;52.10;;;3.48;83.02;93444.97;4960589;28;20112;-55
2024/03/26 02:51:25;;;;;;;7.60;1.90;;;8.20;52.10;;;3.45;84.41;93439.47;4968351;28;20079;-52
2024/03/26 02:53:51;;;;;;;4.53;1.70;;;8.20;52.10;;;3.41;84.69;93427.88;4962004;28;20026;-57
2024/03/26 02:56:17;;;;;;;2.40;1.55;;;8.20;52.10;;;3.29;84.59;93425.59;4965409;28;20057;-54
2024/03/26 02:58:43;;;;;;;5.18;1.67;;;8.20;52.10;;;3.30;83.13;93429.00;4970234;28;20034;-55
2024/03/26 03:01:13;;;;;;;6.00;2.05;;;8.20;52.10;;;3.35;81.69;93428.97;4967042;28;20468;-49
2024/03/26 03:03:40;;;;;;;3.60;1.88;;;8.20;52.20;;;3.37;82.83;93430.28;4968235;28;20397;-49
2024/03/26 03:06:10;;;;;;;5.70;2.08;;;8.20;52.30;;;3.35;82.70;93429.75;4964905;28;20023;-47
2024/03/26 03:08:38;;;;;;;7.03;2.03;;;8.20;52.40;;;3.39;82.47;93430.00;4973061;28;20305;-49
2024/03/26 03:11:05;;;;;;;5.20;1.80;;;8.20;52.40;;;3.40;81.72;93431.56;4971573;28;20381;-50
2024/03/26 03:13:32;;;;;;;3.20;1.90;;;8.20;52.30;;;3.43;83.44;93429.19;4963485;28;20108;-50
2024/03/26 03:15:58;;;;;;;4.10;2.10;;;8.20;52.30;;;3.41;84.17;93423.41;4968649;28;20018;-48
2024/03/26 03:18:26;;;;;;;3.55;1.70;;;8.10;52.30;;;3.39;84.67;93428.16;4967698;28;20513;-55
2024/03/26 03:20:52;;;;;;;4.45;2.05;;;8.10;52.30;;;3.35;85.92;93429.75;4972047;28;20415;-46
2024/03/26 03:23:18;;;;;;;4.15;2.20;;;8.10;52.30;;;3.28;86.01;93424.00;4970118;28;20035;-47
2024/03/26 03:25:52;;;;;;;8.30;2.47;;;8.10;52.30;;;3.10;88.23;93424.59;4973327;28;20101;-51
2024/03/26 03:28:18;;;;;;;2.70;1.83;;;8.00;52.30;;;3.01;89.22;93427.03;4964797;28;20038;-55
2024/03/26 03:30:44;;;;;;;3.70;2.40;;;8.00;52.40;;;2.99;89.00;93426.50;4970333;28;20018;-47
2024/03/26 03:33:10;;;;;;;4.13;2.05;;;7.90;52.40;;;3.00;88.62;93433.34;4972375;28;20040;-47
2024/03/26 03:35:42;;;;;;;3.10;1.92;;;7.90;52.50;;;2.98;88.37;93430.22;4967420;28;20083;-52
2024/03/26 03:38:08;;;;;;;3.15;2.30;;;7.80;52.70;;;2.96;87.89;93435.72;4970984;28;20104;-51
2024/03/26 03:40:35;;;;;;;3.55;1.95;;;7.80;52.70;;;2.91;88.38;93427.84;4970809;28;20026;-53
2024/03/26 03:43:01;;;;;;;4.03;2.20;;;7.80;52.80;;;2.86;90.43;93429.72;4972701;28;20022;-51
2024/03/26 03:45:28;;;;;;;3.13;2.00;;;7.80;52.80;;;2.81;90.77;93417.38;4968543;28;20045;-53
2024/03/26 03:47:57;;;;;;;2.67;1.70;;;7.80;53.00;;;2.90;89.65;93412.34;4973638;28;20037;-49
2024/03/26 03:50:23;;;;;;;3.75;1.85;;;7.80;53.10;;;2.94;89.01;93405.47;4970664;28;20032;-47
2024/03/26 03:52:49;;;;;;;2.85;1.70;;;7.80;53.10;;;2.99;88.45;93413.34;4972616;28;20025;-47
2024/03/26 03:55:15;;;;;;;5.10;2.22;;;7.90;53.20;;;3.05;89.06;93414.91;4966760;28;20366;-50
2024/03/26 03:57:41;;;;;;;3.08;1.55;;;7.80;53.10;;;3.13;84.31;93406.44;4968941;28;20026;-47
2024/03/26 04:00:09;;;;;;;2.72;1.70;;;7.90;53.20;;;3.34;84.61;93411.59;4969396;28;20051;-49
2024/03/26 04:02:35;;;;;;;6.03;1.90;;;8.00;53.20;;;3.46;82.42;93412.84;4973362;28;20117;-51
2024/03/26 04:05:02;;;;;;;4.82;1.70;;;8.10;53.20;;;3.64;81.10;93406.16;4969312;28;20034;-48
2024/03/26 04:07:28;;;;;;;3.47;1.70;;;8.20;53.20;;;3.78;80.72;93397.63;4973973;28;20091;-48
2024/03/26 04:09:54;;;;;;;2.58;1.45;;;8.30;53.20;;;3.88;78.78;93390.44;4963848;28;20153;-47
2024/03/26 04:12:20;;;;;;;1.90;1.33;;;8.40;53.10;;;3.95;78.97;93395.41;4969290;28;20441;-47
2024/03/26 04:14:46;;;;;;;2.03;1.50;;;8.50;52.90;;;4.01;81.33;93402.22;4963647;28;20022;-51
2024/03/26 04:17:12;;;;;;;3.67;1.58;;;8.50;52.80;;;3.97;80.61;93390.63;4973279;28;20088;-48
2024/03/26 04:19:38;;;;;;;3.05;1.42;;;8.60;52.80;;;3.94;79.98;93391.97;4967958;28;20031;-55
2024/03/26 04:22:04;;;;;;;3.60;1.52;;;8.70;52.70;;;3.98;79.62;93384.31;4965637;28;20487;-50
2024/03/26 04:24:30;;;;;;;1.48;1.10;;;8.70;52.70;;;4.03;79.25;93380.84;4970522;28;20081;-50
2024/03/26 04:26:56;;;;;;;1.70;1.17;;;8.80;52.60;;;4.17;79.69;93387.06;4967347;28;20019;-50
2024/03/26 04:29:22;;;;;;;3.70;1.42;;;8.80;52.60;;;4.22;77.95;93400.16;4968550;28;20041;-49
2024/03/26 04:31:48;;;;;;;2.72;1.30;;;8.80;52.40;;;4.21;79.03;93397.81;4967636;28;20034;-48
2024/03/26 04:34:13;;;;;;;1.60;1.17;;;8.80;52.40;;;4.10;78.82;93392.63;4968507;28;20125;-48
2024/03/26 04:36:39;;;;;;;3.22;1.30;;;8.90;52.90;;;4.05;78.71;93384.78;4961735;28;20117;-48
2024/03/26 04:39:08;;;;;;;3.38;1.55;;;8.80;52.30;;;4.08;78.77;93380.81;4966392;28;20033;-47
2024/03/26 04:41:35;;;;;;;2.58;1.40;;;8.80;52.20;;;4.07;79.62;93387.91;4964490;28;20022;-54
2024/03/26 04:44:02;;;;;;;2.85;1.60;;;8.80;52.20;;;4.06;78.77;93393.47;4966106;28;20029;-48
2024/03/26 04:46:28;;;;;;;2.75;1.40;;;8.80;52.20;;;4.03;80.40;93394.00;4968918;28;20141;-48
2024/03/26 04:48:54;;;;;;;3.25;1.38;;;8.80;52.10;;;3.85;78.45;93395.47;4961535;28;20457;-47
2024/03/26 04:51:21;;;;;;;5.40;1.17;;;8.70;52.00;;;3.85;78.79;93390.97;4967895;28;20109;-48
2024/03/26 04:53:47;;;;;;;1.92;1.15;;;8.70;52.10;;;3.88;77.01;93385.16;4967144;28;20478;-50
2024/03/26 04:56:14;;;;;;;2.47;1.20;;;8.70;52.70;;;3.96;76.85;93386.44;4981230;28;20048;-47
2024/03/26 04:58:42;;;;;;;3.05;0.90;;;8.70;52.10;;;3.96;76.91;93367.22;4965811;28;20034;-54
2024/03/26 05:01:09;;;;;;;2.00;1.10;;;8.70;52.10;;;3.98;74.44;93365.06;4961976;28;20053;-55
2024/03/26 05:03:35;;;;;;;3.80;1.15;;;8.70;52.00;;;4.02;75.20;93363.47;4965276;28;20030;-50
2024/03/26 05:06:01;;;;;;;2.97;1.15;;;8.70;51.90;;;3.99;76.67;93353.50;4969093;28;20592;-53
2024/03/26 05:08:26;;;;;;;2.28;1.15;;;8.70;51.90;;;3.93;76.89;93356.16;4964209;28;20122;-53
2024/03/26 05:10:52;;;;;;;4.22;1.00;;;8.70;51.90;;;3.93;76.24;93350.88;4965282;28;20026;-49
2024/03/26 05:13:18;;;;;;;1.60;1.00;;;8.70;51.90;;;3.97;77.69;93352.97;4963159;28;20032;-56
2024/03/26 05:15:44;;;;;;;2.90;1.00;;;8.70;51.90;;;3.98;77.92;93357.16;4966410;28;20168;-50
2024/03/26 05:18:10;;;;;;;2.65;1.00;;;8.70;51.80;;;3.93;78.68;93356.16;4969085;28;20026;-47
2024/03/26 05:20:36;;;;;;;2.85;0.90;;;8.70;51.80;;;3.88;77.83;93352.78;4967620;28;20026;-52
2024/03/26 05:23:02;;;;;;;3.50;1.70;;;8.70;51.80;;;3.87;79.15;93361.75;4960891;28;20059;-47
2024/03/26 05:25:28;;;;;;;1.52;1.15;;;8.60;51.80;;;3.84;79.77;93352.53;4968156;28;20030;-47
2024/03/26 05:27:53;;;;;;;1.45;1.13;;;8.60;51.80;;;3.78;80.01;93348.38;4962642;28;20062;-51
2024/03/26 05:30:19;;;;;;;4.95;1.27;;;8.60;51.90;;;3.67;81.48;93342.41;4971188;28;20022;-48
2024/03/26 05:32:45;;;;;;;2.80;1.35;;;8.50;51.90;;;3.62;82.27;93350.34;4964752;28;20033;-47
2024/03/26 05:35:11;;;;;;;2.30;1.23;;;8.50;52.00;;;3.48;84.37;93355.47;4964211;28;20033;-48
2024/03/26 05:37:37;;;;;;;2.60;1.20;;;8.40;52.10;;;3.43;83.65;93352.06;4964843;28;20120;-50
2024/03/26 05:40:04;;;;;;;1.85;1.10;;;8.40;52.10;;;3.35;84.34;93350.78;4962524;28;20022;-50
2024/03/26 05:42:30;;;;;;;1.98;1.20;;;8.40;52.20;;;3.33;83.78;93345.03;4965605;28;20026;-47
2024/03/26 05:44:55;;;;;;;2.88;1.00;;;8.30;52.20;;;3.36;84.68;93333.97;4967640;28;20030;-52
2024/03/26 05:47:21;;;;;;;2.05;0.88;;;8.30;52.20;;;3.35;85.16;93342.13;4964478;28;20065;-50
2024/03/26 05:49:47;;;;;;;1.48;0.90;;;8.30;52.30;;;3.30;82.26;93339.53;4966159;28;20053;-50
2024/03/26 05:52:13;;;;;;;1.10;0.93;;;8.40;52.40;;;3.37;84.12;93340.78;4965691;28;20018;-51
2024/03/26 05:54:39;;;;;;;3.28;1.15;;;8.30;52.30;;;3.36;85.25;93335.81;4966325;28;20026;-50
2024/03/26 05:57:05;;;;;;;2.75;1.80;;;8.30;52.40;;;3.36;85.05;93341.06;4966924;28;20484;-49
2024/03/26 05:59:31;;;;;;;3.30;1.42;;;8.40;52.50;;;3.31;85.56;93341.88;4965487;28;20062;-49
2024/03/26 06:01:56;;;;;;;1.58;1.10;;;8.40;52.50;;;3.33;86.73;93341.63;4963110;28;20050;-48
2024/03/26 06:04:22;;;;;;;2.38;1.20;;;8.40;52.50;;;3.28;85.11;93334.53;4962358;28;20781;-47
2024/03/26 06:06:48;;;;;;;1.95;1.23;;;8.40;52.60;;;3.36;85.66;93336.59;4960343;28;20616;-51
2024/03/26 06:09:14;;;;;;;2.00;1.33;;;8.40;52.50;;;3.41;85.53;93333.13;4965272;28;20040;-47
2024/03/26 06:11:40;;;;;;;2.45;1.20;;;8.40;52.50;;;3.44;85.55;93335.22;4962752;28;20037;-51
2024/03/26 06:14:06;;;;;;;1.98;1.13;;;8.50;52.50;;;3.40;87.19;93334.19;4964199;28;20373;-52
2024/03/26 06:16:31;;;;;;;1.92;1.30;;;8.50;52.50;;;3.42;87.73;93324.19;4958928;28;20415;-50
2024/03/26 06:18:57;;;;;;;4.88;2.25;;;8.50;52.60;;;3.26;87.66;93326.16;4962863;28;20767;-49
2024/03/26 06:21:23;;;;;;;3.33;1.65;;;8.50;52.70;;;3.32;87.18;93332.94;4967217;28;20608;-50
2024/03/26 06:23:49;;;;;;;3.45;1.73;;;8.60;52.80;;;3.37;85.13;93322.38;4963011;28;20436;-50
2024/03/26 06:26:15;;;;;;;1.95;1.60;;;8.60;52.80;;;3.52;85.02;93325.97;4965702;28;20105;-46
2024/03/26 06:28:41;;;;;;;3.35;1.60;;;8.70;52.80;;;3.58;84.20;93323.00;4964375;28;20069;-50
2024/03/26 06:31:07;;;;;;;4.32;1.75;;;8.70;52.80;;;3.66;83.06;93319.00;4967741;28;20026;-51
2024/03/26 06:33:32;;;;;;;2.65;1.70;;;8.80;52.70;;;3.68;82.44;93322.13;4970811;28;20145;-48
2024/03/26 06:35:58;;;;;;;2.63;1.70;;;8.90;52.70;;;3.81;82.78;93324.13;4964920;28;20081;-48
2024/03/26 06:38:24;;;;;;;1.73;1.30;;;9.00;52.60;;;3.96;81.17;93330.34;4966589;28;20030;-49
2024/03/26 06:40:50;;;;;;;2.47;1.65;;;9.20;52.50;;;4.15;80.70;93328.56;4969429;28;20456;-50
2024/03/26 06:43:16;;;;;;;3.17;1.80;;;9.30;52.40;;;4.34;79.63;93344.44;4965061;28;20436;-47
2024/03/26 06:45:42;;;;;;;1.90;1.38;;;9.50;52.30;;;4.46;76.58;93342.22;4972181;28;20024;-52
2024/03/26 06:48:08;;;;;;;2.00;1.23;;;9.70;52.10;;;4.65;76.13;93342.25;4966449;28;20030;-55
2024/03/26 06:50:34;;;;;;;3.90;1.75;;;9.90;51.90;;;4.88;76.79;93346.72;4967877;28;20100;-48
2024/03/26 06:53:00;;;;;;;4.10;1.40;;;10.20;51.70;;;5.20;74.68;93350.56;4969672;28;20026;-47
2024/03/26 06:55:26;;;;;;;2.63;1.45;;;10.50;51.50;;;5.49;73.25;93350.41;4966543;28;20022;-48
2024/03/26 06:57:52;;;;;;;2.70;1.30;;;10.80;51.20;;;5.84;74.47;93350.94;4967931;28;20029;-48
2024/03/26 07:00:18;;;;;;;3.95;1.77;;;11.20;51.00;;;6.22;72.05;93356.16;4972364;28;20057;-47
2024/03/26 07:02:45;;;;;;;2.05;1.30;;;11.70;50.70;;;6.57;69.85;93348.63;4964361;28;20018;-54
2024/03/26 07:05:11;;;;;;;3.28;1.50;;;12.20;50.30;;;6.90;69.50;93350.13;4969050;28;20038;-50
2024/03/26 07:07:41;;;;;;;3.33;1.60;;;12.60;49.80;;;7.19;67.23;93352.44;4965497;28;20018;-47
2024/03/26 07:10:08;;;;;;;1.95;1.40;;;12.90;49.20;;;7.41;66.57;93342.97;4968300;28;20033;-48
2024/03/26 07:12:34;;;;;;;1.80;1.33;;;13.30;48.90;;;7.66;65.32;93336.31;4967669;28;20117;-52
2024/03/26 07:15:00;;;;;;;5.03;1.40;;;13.60;48.50;;;7.84;62.83;93335.34;4967082;28;20029;-56
2024/03/26 07:17:26;;;;;;;1.42;1.10;;;13.90;48.00;;;8.08;61.98;93331.59;4966890;28;20689;-49
2024/03/26 07:19:53;;;;;;;2.85;0.82;;;14.10;47.60;;;8.37;60.53;93328.50;4963573;28;20027;-50
2024/03/26 07:22:19;;;;;;;3.60;1.33;;;14.20;47.20;;;8.44;60.04;93328.88;4967353;28;20110;-49
2024/03/26 07:24:48;;;;;;;1.58;1.05;;;14.30;46.80;;;8.30;62.27;93328.13;4964225;28;20018;-49
2024/03/26 07:27:13;;;;;;;2.17;1.20;;;14.20;46.60;;;8.26;62.54;93333.25;4969114;28;20516;-49
2024/03/26 07:29:40;;;;;;;3.08;0.98;;;14.20;46.50;;;8.21;63.80;93328.09;4972179;28;20202;-48
2024/03/26 07:32:06;;;;;;;1.83;1.20;;;14.10;46.40;;;8.19;64.05;93324.19;4967763;28;20015;-47
2024/03/26 07:34:36;;;;;;;2.90;1.25;;;14.00;46.40;;;8.13;64.97;93315.56;4965319;28;20026;-51
2024/03/26 07:37:02;;;;;;;1.98;1.20;;;14.00;46.50;;;7.90;66.23;93322.78;4963986;28;20026;-47
2024/03/26 07:39:29;;;;;;;1.30;0.90;;;13.90;46.40;;;7.77;65.82;93315.66;4963414;28;20038;-50
2024/03/26 07:41:56;;;;;;;2.08;1.40;;;13.90;46.30;;;7.89;65.95;93314.00;4970957;28;20029;-47
2024/03/26 07:44:23;;;;;;;5.22;1.20;;;14.00;46.20;;;8.30;65.19;93306.91;4966097;28;20025;-49
2024/03/26 07:46:49;;;;;;;1.95;1.13;;;14.40;46.20;;;8.68;62.91;93309.13;4971146;28;20018;-49
2024/03/26 07:49:15;;;;;;;1.95;1.35;;;14.80;45.90;;;9.01;60.74;93298.91;4966949;28;20484;-47
2024/03/26 07:51:41;;;;;;;1.92;1.33;;;15.20;45.50;;;9.44;60.34;93298.97;4963584;28;20033;-55
2024/03/26 07:54:07;;;;;;;1.73;1.30;;;15.70;45.00;;;9.91;59.06;93298.31;4967284;28;20029;-48
2024/03/26 07:56:33;;;;;;;3.13;1.63;;;16.20;44.70;;;10.35;55.72;93293.72;4961213;28;20026;-49
2024/03/26 07:59:00;;;;;;;1.80;1.60;;;16.70;44.00;;;10.77;55.34;93302.63;4967809;28;20121;-50
2024/03/26 08:01:26;;;;;;;2.78;1.80;;;17.20;43.50;;;11.16;53.60;93302.59;4966663;28;20165;-49
2024/03/26 08:03:52;;;;;;;4.28;2.08;;;17.60;42.60;;;11.50;54.24;93296.22;4963974;28;20066;-50
2024/03/26 08:06:18;;;;;;;2.20;1.70;;;18.00;42.10;;;11.61;52.18;93281.41;4970643;28;20346;-52
2024/03/26 08:08:50;;;;;;;3.85;2.08;;;18.40;41.70;;;11.39;51.77;93277.19;4963801;28;20461;-49
2024/03/26 08:11:17;;;;;;;3.08;1.92;;;18.70;40.50;;;11.88;51.95;93279.34;4970454;28;20105;-49
2024/03/26 08:13:43;;;;;;;3.55;2.00;;;18.90;40.10;;;12.33;50.33;93279.34;4967809;28;20050;-56
2024/03/26 08:16:10;;;;;;;3.78;2.05;;;19.20;39.70;;;12.56;50.87;93271.69;4965053;28;20054;-49
2024/03/26 08:18:36;;;;;;;3.40;1.80;;;19.50;39.20;;;12.79;49.29;93276.63;4974595;28;20272;-48
2024/03/26 08:21:03;;;;;;;1.70;1.60;;;19.70;38.90;;;13.15;48.55;93275.81;4966860;28;20053;-51
2024/03/26 08:23:29;;;;;;;2.17;1.70;;;19.90;38.60;;;13.56;48.23;93274.75;4974518;28;20031;-49
2024/03/26 08:25:56;;;;;;;3.10;1.85;;;20.10;38.30;;;13.28;48.26;93269.34;4969513;28;20067;-47
2024/03/26 08:28:22;;;;;;;3.40;2.00;;;20.30;37.80;;;13.72;49.35;93282.06;4971505;28;20037;-48
2024/03/26 08:30:48;;;;;;;4.07;2.10;;;20.50;37.70;;;14.12;47.79;93272.06;4976855;28;20018;-48
2024/03/26 08:33:14;;;;;;;4.25;1.90;;;20.80;37.60;;;14.19;45.10;93276.06;4968371;28;20030;-48
2024/03/26 08:35:41;;;;;;;2.45;1.95;;;21.00;36.80;;;13.90;45.88;93261.94;4966122;28;20038;-51
2024/03/26 08:38:08;;;;;;;2.20;2.00;;;21.20;36.30;;;13.95;45.98;93264.38;4967215;28;20072;-50
2024/03/26 08:40:37;;;;;;;3.72;1.88;;;21.20;35.90;;;14.02;45.04;93269.13;4973528;28;20068;-52
2024/03/26 08:43:03;;;;;;;2.97;2.22;;;21.20;35.40;;;13.99;45.96;93275.94;4969262;28;20026;-49
2024/03/26 08:45:29;;;;;;;3.85;2.40;;;21.20;35.20;;;14.05;47.73;93279.94;4967434;28;20477;-48
2024/03/26 08:47:56;;;;;;;2.22;2.03;;;21.10;35.40;;;14.00;45.92;93282.84;4962341;28;20062;-49
2024/03/26 08:50:23;;;;;;;4.10;2.03;;;21.00;35.10;;;14.08;44.63;93278.47;4968087;28;20054;-50
2024/03/26 08:52:49;;;;;;;4.05;2.08;;;20.90;34.80;;;14.07;44.91;93274.22;4971161;28;20445;-48
2024/03/26 08:55:15;;;;;;;2.78;2.13;;;21.00;34.60;;;14.05;45.30;93263.88;4968595;28;20041;-52
2024/03/26 08:57:41;;;;;;;2.78;2.20;;;21.00;34.40;;;14.21;45.85;93239.81;4970235;28;20117;-50
2024/03/26 09:00:10;;;;;;;4.57;2.50;;;21.20;34.40;;;14.24;46.77;93252.50;4963133;28;20034;-50
2024/03/26 09:02:37;;;;;;;3.45;2.22;;;21.40;34.30;;;14.15;45.43;93254.56;4965333;28;20038;-51
2024/03/26 09:05:03;;;;;;;4.28;2.78;;;21.60;33.90;;;14.06;44.91;93244.00;4971154;28;20065;-51
2024/03/26 09:07:30;;;;;;;4.50;2.42;;;21.90;33.50;;;13.97;46.31;93240.69;4969172;28;20465;-49
2024/03/26 09:09:56;;;;;;;5.85;2.17;;;22.00;33.10;;;14.46;46.98;93228.94;4972680;28;20501;-48
2024/03/26 09:12:22;;;;;;;3.55;2.17;;;22.30;33.10;;;14.98;44.64;93222.53;4973623;28;20036;-55
2024/03/26 09:14:48;;;;;;;2.83;2.20;;;22.60;32.80;;;15.16;44.18;93223.69;4970961;28;20030;-49
2024/03/26 09:17:14;;;;;;;2.92;2.17;;;22.80;32.60;;;15.22;43.33;93216.16;4961657;28;20045;-50
2024/03/26 09:19:40;;;;;;;3.08;2.30;;;23.00;32.50;;;15.28;42.32;93212.84;4966446;28;20232;-50
2024/03/26 09:22:07;;;;;;;4.88;2.20;;;23.20;31.80;;;15.46;43.41;93209.75;4970474;28;20560;-50
2024/03/26 09:24:33;;;;;;;2.88;2.03;;;23.40;31.30;;;15.63;42.35;93209.34;4964804;28;20029;-52
2024/03/26 09:26:59;;;;;;;2.83;2.20;;;23.60;31.00;;;15.72;42.31;93201.09;4970247;28;20018;-48
2024/03/26 09:29:25;;;;;;;3.38;2.13;;;23.80;30.70;;;15.47;42.21;93205.94;4975124;28;20045;-53
2024/03/26 09:31:51;;;;;;;3.08;2.13;;;23.80;30.20;;;15.52;41.46;93210.25;4967954;28;20085;-51
2024/03/26 09:34:17;;;;;;;3.40;1.90;;;23.80;30.00;;;15.48;40.63;93202.94;4964213;28;20029;-50
2024/03/26 09:36:43;;;;;;;6.45;2.15;;;23.70;29.90;;;15.44;41.89;93210.09;4967399;28;20197;-50
2024/03/26 09:39:09;;;;;;;2.60;1.88;;;23.60;29.80;;;15.41;42.05;93207.34;4965298;28;20049;-52
2024/03/26 09:41:37;;;;;;;4.95;1.95;;;23.50;29.80;;;15.46;40.90;93209.75;4969635;28;20023;-48
2024/03/26 09:44:03;;;;;;;4.45;2.00;;;23.50;29.70;;;15.42;40.70;93208.91;4963345;28;20033;-54
2024/03/26 09:46:34;;;;;;;3.08;2.13;;;23.50;29.60;;;15.34;40.79;93209.91;4968542;28;20513;-50
2024/03/26 09:49:08;;;;;;;3.30;1.92;;;23.50;29.20;;;15.11;40.66;93207.13;4967135;28;20073;-52
2024/03/26 09:51:38;;;;;;;3.05;2.00;;;23.40;29.10;;;14.61;41.38;93206.00;4971022;28;20377;-50
2024/03/26 09:54:04;;;;;;;3.80;2.28;;;23.10;29.10;;;14.17;43.30;93201.47;4972787;28;20079;-52
2024/03/26 09:56:30;;;;;;;4.30;2.00;;;22.70;29.30;;;13.62;43.46;93200.41;4969813;28;20014;-57
2024/03/26 09:58:57;;;;;;;2.72;2.10;;;22.30;29.50;;;13.34;44.96;93192.38;4970662;28;20037;-51
2024/03/26 10:01:27;;;;;;;4.38;2.10;;;22.00;29.80;;;13.19;45.51;93189.28;4968549;28;20507;-51
2024/03/26 10:03:53;;;;;;;3.42;2.10;;;21.80;29.90;;;13.24;45.86;93198.16;4972626;28;20040;-50
2024/03/26 10:06:21;;;;;;;5.32;2.78;;;21.60;30.10;;;13.36;46.92;93182.88;4980024;28;20094;-49
2024/03/26 10:08:49;;;;;;;3.33;2.35;;;21.40;30.50;;;13.07;47.61;93177.84;4974938;28;20555;-49
2024/03/26 10:11:15;;;;;;;2.75;1.88;;;21.20;30.90;;;13.12;46.37;93180.25;4970324;28;20075;-48
2024/03/26 10:13:41;;;;;;;7.43;2.60;;;21.00;31.20;;;13.18;47.31;93182.34;4984500;28;20447;-48
2024/03/26 10:16:07;;;;;;;3.15;2.30;;;20.80;31.40;;;13.22;46.82;93177.09;4978818;28;20022;-52
2024/03/26 10:18:33;;;;;;;4.40;2.30;;;20.60;31.80;;;13.02;48.20;93170.03;4972902;28;20497;-49
2024/03/26 10:20:59;;;;;;;5.28;2.15;;;20.50;32.10;;;12.93;47.47;93175.50;4975756;28;20095;-50
2024/03/26 10:23:27;;;;;;;3.17;1.90;;;20.30;32.30;;;12.86;47.68;93169.97;4980395;28;20112;-50